Time;durP1;ratioP1;P1;durP2;ratioP2;P2;SDS_P1;SDS_P2;PMS_P1;PMS_P2;Temp;Humidity;BMP_temperature;BMP_pressure;BME280_temperature;BME280_humidity;BME280_pressure;Samples;Min_cycle;Max_cycle;Signal;HPM_P1;HPM_P2
2023/06/05 00:02:05;;;;;;;6.93;2.50;;;11.40;72.00;;;;;;5013747;28;20140;-84
2023/06/05 00:04:30;;;;;;;6.47;2.97;;;11.40;71.90;;;;;;5009324;28;20033;-86
2023/06/05 00:06:57;;;;;;;3.58;2.38;;;11.40;71.80;;;;;;5014142;28;20022;-85
2023/06/05 00:09:23;;;;;;;3.33;2.47;;;11.50;71.60;;;;;;5014681;28;20029;-85
2023/06/05 00:11:49;;;;;;;5.90;3.38;;;11.50;71.50;;;;;;5014252;28;20030;-86
2023/06/05 00:14:15;;;;;;;6.88;2.97;;;11.50;71.60;;;;;;4997907;28;20117;-86
2023/06/05 00:16:41;;;;;;;6.00;2.72;;;11.50;71.60;;;;;;5014400;28;20080;-84
2023/06/05 00:19:07;;;;;;;6.20;3.00;;;11.50;71.50;;;;;;5019708;28;20022;-84
2023/06/05 00:21:33;;;;;;;4.63;2.70;;;11.50;71.50;;;;;;5003252;28;20026;-85
2023/06/05 00:23:59;;;;;;;5.20;2.90;;;11.50;71.40;;;;;;5017106;28;20033;-85
2023/06/05 00:26:26;;;;;;;10.18;3.75;;;11.50;71.40;;;;;;5014069;28;20104;-87
2023/06/05 00:28:52;;;;;;;5.35;3.38;;;11.50;71.30;;;;;;5013550;28;20456;-85
2023/06/05 00:31:21;;;;;;;7.63;2.63;;;11.60;71.40;;;;;;4995907;28;20049;-85
2023/06/05 00:33:48;;;;;;;6.32;3.08;;;11.50;71.30;;;;;;5012115;28;20434;-85
2023/06/05 00:36:14;;;;;;;3.73;2.90;;;11.60;71.60;;;;;;5012717;28;20018;-83
2023/06/05 00:38:40;;;;;;;4.65;2.90;;;11.60;71.50;;;;;;4995802;28;20029;-84
2023/06/05 00:41:05;;;;;;;5.20;2.88;;;11.60;71.50;;;;;;5008292;28;20363;-84
2023/06/05 00:43:31;;;;;;;6.18;2.78;;;11.60;71.70;;;;;;5010698;28;20072;-84
2023/06/05 00:46:02;;;;;;;5.53;3.35;;;11.60;71.60;;;;;;5014522;28;20022;-84
2023/06/05 00:48:30;;;;;;;5.90;3.10;;;11.70;71.60;;;;;;5032431;28;20030;-82
2023/06/05 00:50:56;;;;;;;5.43;2.55;;;11.60;71.60;;;;;;5033236;28;20022;-82
2023/06/05 00:53:24;;;;;;;4.03;2.80;;;11.70;71.80;;;;;;5020734;28;20026;-84
2023/06/05 00:55:51;;;;;;;5.15;2.55;;;11.70;72.00;;;;;;4997076;28;20054;-85
2023/06/05 00:58:17;;;;;;;5.73;2.63;;;11.70;71.60;;;;;;5014072;28;20072;-84
2023/06/05 01:00:45;;;;;;;3.88;2.72;;;11.70;71.60;;;;;;5013665;28;20796;-85
2023/06/05 01:03:12;;;;;;;7.05;2.85;;;11.70;71.50;;;;;;5014322;28;20533;-84
2023/06/05 01:05:38;;;;;;;4.60;2.53;;;11.70;71.80;;;;;;5003951;28;20023;-83
2023/06/05 01:08:05;;;;;;;6.03;2.67;;;11.70;71.30;;;;;;5013355;28;20048;-82
2023/06/05 01:10:32;;;;;;;3.40;2.63;;;11.70;71.40;;;;;;4993378;28;20029;-83
2023/06/05 01:13:06;;;;;;;3.75;2.65;;;11.80;71.40;;;;;;5003428;28;20034;-83
2023/06/05 01:15:33;;;;;;;5.40;2.97;;;11.80;71.50;;;;;;5014482;28;20105;-83
2023/06/05 01:18:00;;;;;;;4.78;3.10;;;11.80;71.30;;;;;;5014276;28;20080;-84
2023/06/05 01:20:39;;;;;;;10.23;3.08;;;11.80;71.20;;;;;;5019675;28;20418;-84
2023/06/05 01:23:07;;;;;;;7.00;2.80;;;11.80;71.50;;;;;;5010353;28;20047;-82
2023/06/05 01:25:34;;;;;;;4.22;2.35;;;11.80;71.40;;;;;;5019948;28;20082;-85
2023/06/05 01:28:29;;;;;;;5.05;2.65;;;11.80;71.50;;;;;;4997471;28;20407;-84
2023/06/05 01:31:04;;;;;;;5.10;3.10;;;11.80;71.40;;;;;;5011215;28;20022;-83
2023/06/05 01:33:43;;;;;;;6.03;2.83;;;11.80;71.30;;;;;;5005402;28;20022;-84
2023/06/05 01:36:11;;;;;;;7.63;2.92;;;11.80;71.30;;;;;;5001676;28;20025;-85
2023/06/05 01:38:39;;;;;;;5.55;2.58;;;11.70;71.30;;;;;;5015034;28;20042;-82
2023/06/05 01:41:06;;;;;;;3.85;2.92;;;11.70;71.80;;;;;;5005923;28;20103;-83
2023/06/05 01:43:33;;;;;;;5.10;2.33;;;11.70;71.90;;;;;;4995871;28;20029;-83
2023/06/05 01:46:00;;;;;;;3.53;2.92;;;11.70;71.90;;;;;;4992618;28;20268;-84
2023/06/05 01:48:30;;;;;;;5.00;2.60;;;11.70;71.80;;;;;;5002275;28;20029;-83
2023/06/05 01:51:00;;;;;;;4.53;3.03;;;11.70;71.80;;;;;;5013627;28;20022;-82
2023/06/05 01:53:27;;;;;;;5.20;2.80;;;11.70;72.20;;;;;;5028260;28;20411;-83
2023/06/05 01:55:57;;;;;;;5.97;3.17;;;11.80;72.10;;;;;;5007146;28;20029;-83
2023/06/05 01:58:26;;;;;;;4.13;2.70;;;11.80;72.30;;;;;;5021392;28;20052;-84
2023/06/05 02:00:56;;;;;;;3.97;2.53;;;11.80;72.30;;;;;;5017042;28;20029;-83
2023/06/05 02:03:23;;;;;;;5.80;2.65;;;11.80;72.30;;;;;;5019798;28;20175;-83
2023/06/05 02:05:51;;;;;;;6.03;3.22;;;11.80;73.10;;;;;;5023075;28;20024;-84
2023/06/05 02:08:19;;;;;;;5.15;2.47;;;11.80;72.90;;;;;;5037641;28;20022;-83
2023/06/05 02:10:48;;;;;;;5.88;3.28;;;11.80;72.90;;;;;;5022575;28;20026;-83
2023/06/05 02:13:19;;;;;;;5.05;2.63;;;11.90;73.10;;;;;;5015272;28;20183;-83
2023/06/05 02:15:45;;;;;;;6.07;2.88;;;11.90;72.70;;;;;;5017134;28;20061;-82
2023/06/05 02:18:12;;;;;;;4.85;2.50;;;12.00;73.00;;;;;;5018489;28;20108;-84
2023/06/05 02:20:40;;;;;;;6.50;1.92;;;12.00;72.60;;;;;;5000809;28;20036;-84
2023/06/05 02:23:06;;;;;;;;;;;12.00;72.60;;;;;;5022631;28;20029;-86
2023/06/05 02:25:32;;;;;;;7.95;2.65;;;12.00;72.40;;;;;;5021636;28;19912;-83
2023/06/05 02:27:58;;;;;;;6.72;2.88;;;12.10;72.70;;;;;;5016896;28;20566;-83
2023/06/05 02:30:24;;;;;;;5.13;2.55;;;12.10;72.80;;;;;;5000474;28;20111;-84
2023/06/05 02:32:56;;;;;;;7.43;3.08;;;12.20;72.80;;;;;;4998542;28;20399;-86
2023/06/05 02:35:23;;;;;;;3.35;2.65;;;12.20;72.50;;;;;;5005221;28;20026;-84
2023/06/05 02:37:49;;;;;;;3.97;2.63;;;12.20;72.60;;;;;;5016545;28;20026;-84
2023/06/05 02:40:15;;;;;;;6.90;3.10;;;12.10;72.80;;;;;;5020949;28;20034;-84
2023/06/05 02:42:41;;;;;;;5.85;3.03;;;12.10;72.60;;;;;;5036541;28;20020;-83
2023/06/05 02:45:09;;;;;;;4.75;2.55;;;12.10;72.90;;;;;;5036355;28;20045;-84
2023/06/05 02:47:35;;;;;;;4.78;2.13;;;12.10;73.30;;;;;;5016710;28;20183;-84
2023/06/05 02:50:02;;;;;;;4.60;2.40;;;12.20;73.30;;;;;;5000819;28;20033;-84
2023/06/05 02:52:28;;;;;;;4.53;2.63;;;12.20;73.80;;;;;;4997428;28;20034;-84
2023/06/05 02:54:54;;;;;;;5.90;2.80;;;12.20;73.90;;;;;;5017174;28;20046;-84
2023/06/05 02:57:20;;;;;;;4.20;2.58;;;12.20;74.70;;;;;;5019567;28;20341;-84
2023/06/05 02:59:46;;;;;;;6.72;2.83;;;12.20;74.90;;;;;;5023477;28;20025;-85
2023/06/05 03:02:12;;;;;;;4.85;2.65;;;12.20;75.30;;;;;;5016303;28;20023;-84
2023/06/05 03:04:42;;;;;;;5.20;2.70;;;12.20;75.60;;;;;;5014654;28;20446;-83
2023/06/05 03:07:09;;;;;;;4.07;2.70;;;12.20;75.30;;;;;;5008371;28;20095;-82
2023/06/05 03:09:36;;;;;;;3.47;2.78;;;12.20;75.70;;;;;;5017244;28;20026;-83
2023/06/05 03:12:02;;;;;;;4.80;2.50;;;12.20;75.60;;;;;;5008873;28;20475;-85
2023/06/05 03:14:28;;;;;;;3.53;2.40;;;12.20;76.10;;;;;;5016843;28;20022;-83
2023/06/05 03:16:54;;;;;;;7.80;2.50;;;12.30;76.10;;;;;;5010312;28;20062;-84
2023/06/05 03:19:22;;;;;;;8.40;3.17;;;12.40;76.10;;;;;;5016858;28;20487;-84
2023/06/05 03:21:49;;;;;;;3.90;2.80;;;12.20;76.50;;;;;;4997836;28;20487;-83
2023/06/05 03:24:15;;;;;;;3.30;2.38;;;12.10;77.00;;;;;;4994347;28;20042;-85
2023/06/05 03:26:42;;;;;;;4.63;2.47;;;12.00;77.20;;;;;;5016142;28;20196;-84
2023/06/05 03:29:10;;;;;;;4.60;3.37;;;12.00;77.40;;;;;;5017034;28;20060;-86
2023/06/05 03:31:36;;;;;;;3.60;2.75;;;12.20;77.40;;;;;;5015970;28;20018;-84
2023/06/05 03:34:03;;;;;;;6.00;3.40;;;12.20;77.00;;;;;;5014891;28;20037;-84
2023/06/05 03:36:33;;;;;;;;;;;12.30;77.60;;;;;;5012008;28;20029;-83
2023/06/05 03:38:59;;;;;;;5.55;2.05;;;12.40;77.20;;;;;;5015045;28;20376;-85
2023/06/05 03:41:26;;;;;;;6.07;2.60;;;12.50;77.20;;;;;;5014522;28;20084;-83
2023/06/05 03:43:52;;;;;;;5.47;2.47;;;12.70;77.20;;;;;;4998048;28;20430;-85
2023/06/05 03:46:18;;;;;;;5.25;2.83;;;12.80;76.60;;;;;;4997701;28;20018;-84
2023/06/05 03:48:46;;;;;;;6.65;2.53;;;12.90;76.50;;;;;;5007881;28;20049;-86
2023/06/05 03:51:12;;;;;;;2.97;2.03;;;13.00;76.40;;;;;;4993425;28;20029;-84
2023/06/05 03:53:39;;;;;;;5.07;2.97;;;13.20;76.20;;;;;;5017582;28;20395;-84
2023/06/05 03:56:08;;;;;;;4.60;2.22;;;13.30;76.10;;;;;;4997709;28;20480;-83
2023/06/05 03:58:35;;;;;;;5.82;2.88;;;13.50;76.50;;;;;;5015311;28;20084;-83
2023/06/05 04:01:01;;;;;;;4.25;2.65;;;13.50;76.70;;;;;;4992167;28;20035;-84
2023/06/05 04:03:27;;;;;;;4.78;2.45;;;13.50;76.60;;;;;;4993552;28;20046;-83
2023/06/05 04:05:53;;;;;;;5.63;3.40;;;13.50;77.40;;;;;;4994970;28;20034;-84
2023/06/05 04:08:19;;;;;;;5.90;2.97;;;13.40;78.50;;;;;;4992861;28;20500;-84
2023/06/05 04:10:45;;;;;;;6.53;2.70;;;13.20;79.70;;;;;;4992121;28;20046;-82
2023/06/05 04:13:11;;;;;;;4.65;2.88;;;13.10;80.30;;;;;;4991568;28;20026;-83
2023/06/05 04:15:37;;;;;;;4.53;2.80;;;12.90;80.90;;;;;;4992762;28;20045;-85
2023/06/05 04:18:03;;;;;;;7.22;3.30;;;12.80;81.50;;;;;;4993890;28;20399;-83
2023/06/05 04:20:29;;;;;;;4.25;3.00;;;12.80;82.30;;;;;;4992722;28;20045;-83
2023/06/05 04:22:55;;;;;;;6.35;2.75;;;12.70;82.70;;;;;;4987175;28;20034;-83
2023/06/05 04:25:21;;;;;;;4.60;2.92;;;12.70;83.60;;;;;;4993384;28;20105;-83
2023/06/05 04:27:50;;;;;;;4.55;3.13;;;12.80;84.30;;;;;;4998105;28;20046;-83
2023/06/05 04:30:16;;;;;;;4.70;2.72;;;12.80;84.10;;;;;;4999494;28;20022;-81
2023/06/05 04:32:42;;;;;;;4.05;3.10;;;12.80;84.10;;;;;;5019623;28;20042;-84
2023/06/05 04:35:10;;;;;;;4.95;3.20;;;12.80;84.60;;;;;;5021239;28;20454;-83
2023/06/05 04:37:38;;;;;;;5.60;2.97;;;12.90;85.60;;;;;;5024568;28;20017;-82
2023/06/05 04:40:09;;;;;;;;;;;13.10;84.30;;;;;;5016313;28;20044;-83
2023/06/05 04:42:36;;;;;;;4.20;3.25;;;13.20;83.50;;;;;;5020986;28;19909;-84
2023/06/05 04:45:04;;;;;;;7.38;2.72;;;13.40;83.10;;;;;;5017048;28;20026;-81
2023/06/05 04:47:31;;;;;;;5.38;2.67;;;13.40;83.50;;;;;;5016223;28;20056;-81
2023/06/05 04:50:03;;;;;;;7.38;3.22;;;13.50;82.70;;;;;;5019486;28;20379;-82
2023/06/05 04:52:30;;;;;;;3.42;2.83;;;13.50;82.80;;;;;;5030741;28;20026;-81
2023/06/05 04:54:57;;;;;;;6.97;2.70;;;13.50;83.10;;;;;;5030442;28;20021;-81
2023/06/05 04:57:25;;;;;;;3.80;2.65;;;13.60;83.40;;;;;;5005688;28;20117;-82
2023/06/05 04:59:53;;;;;;;4.22;3.08;;;13.70;83.10;;;;;;5013031;28;20488;-81
2023/06/05 05:02:19;;;;;;;4.75;2.78;;;13.70;83.00;;;;;;4999622;28;20026;-85
2023/06/05 05:04:45;;;;;;;4.45;2.83;;;13.70;83.30;;;;;;5021743;28;20415;-84
2023/06/05 05:07:15;;;;;;;6.13;2.75;;;13.70;83.60;;;;;;5019071;28;20083;-83
2023/06/05 05:09:42;;;;;;;6.22;3.22;;;13.60;83.30;;;;;;5006178;28;20028;-84
2023/06/05 05:12:09;;;;;;;6.30;4.55;;;13.60;83.50;;;;;;5013755;28;20116;-85
2023/06/05 05:14:36;;;;;;;3.15;2.78;;;13.60;84.40;;;;;;5012997;28;20021;-85
2023/06/05 05:17:02;;;;;;;5.15;3.20;;;13.50;84.60;;;;;;5013037;28;20391;-84
2023/06/05 05:19:28;;;;;;;6.70;4.03;;;13.50;86.30;;;;;;5013621;28;20013;-83
2023/06/05 05:21:54;;;;;;;5.18;3.42;;;13.60;86.90;;;;;;5001365;28;20056;-83
2023/06/05 05:24:20;;;;;;;8.30;3.10;;;13.70;87.50;;;;;;5002788;28;20086;-85
2023/06/05 05:26:46;;;;;;;4.88;3.40;;;14.00;87.70;;;;;;5010603;28;20561;-82
2023/06/05 05:29:12;;;;;;;7.13;3.75;;;14.20;86.90;;;;;;5010328;28;20061;-83
2023/06/05 05:31:38;;;;;;;6.85;3.38;;;14.30;86.10;;;;;;5013259;28;20088;-82
2023/06/05 05:34:05;;;;;;;3.90;2.90;;;14.50;86.50;;;;;;4989014;28;20066;-84
2023/06/05 05:36:33;;;;;;;8.15;3.38;;;14.60;85.60;;;;;;5015406;28;20024;-85
2023/06/05 05:38:59;;;;;;;8.65;3.55;;;14.80;84.90;;;;;;5013450;28;20026;-83
2023/06/05 05:41:26;;;;;;;4.53;2.90;;;15.10;85.20;;;;;;5013597;28;20072;-84
2023/06/05 05:43:52;;;;;;;7.20;3.70;;;15.30;84.10;;;;;;5015302;28;20026;-85
2023/06/05 05:46:18;;;;;;;8.98;3.83;;;15.50;82.00;;;;;;5014996;28;20102;-85
2023/06/05 05:48:44;;;;;;;6.38;3.17;;;15.50;81.80;;;;;;4997480;28;20172;-86
2023/06/05 05:51:10;;;;;;;5.15;3.53;;;15.50;81.10;;;;;;5007234;28;20014;-85
2023/06/05 05:53:36;;;;;;;4.25;3.03;;;15.50;81.60;;;;;;5013926;28;20022;-84
2023/06/05 05:56:03;;;;;;;8.18;3.30;;;15.50;79.90;;;;;;5012951;28;20014;-86
2023/06/05 05:58:29;;;;;;;4.90;2.75;;;15.30;80.60;;;;;;5026458;28;20022;-86
2023/06/05 06:00:55;;;;;;;5.03;2.35;;;15.30;80.80;;;;;;5024016;28;20049;-85
2023/06/05 06:03:23;;;;;;;5.93;3.88;;;15.20;80.00;;;;;;4991200;28;20045;-84
2023/06/05 06:05:49;;;;;;;5.25;2.80;;;14.70;81.90;;;;;;4998505;28;20019;-86
2023/06/05 06:08:16;;;;;;;4.93;3.38;;;14.50;83.60;;;;;;5000693;28;20050;-86
2023/06/05 06:10:43;;;;;;;4.97;3.30;;;14.30;85.00;;;;;;5011281;28;20029;-82
2023/06/05 06:13:10;;;;;;;5.85;3.35;;;14.20;85.00;;;;;;5010594;28;20033;-84
2023/06/05 06:15:38;;;;;;;5.38;3.92;;;14.10;85.50;;;;;;5012027;28;20029;-82
2023/06/05 06:18:05;;;;;;;6.35;3.58;;;14.20;86.00;;;;;;5010875;28;20049;-84
2023/06/05 06:20:32;;;;;;;5.23;3.60;;;14.20;86.60;;;;;;5012540;28;20022;-83
2023/06/05 06:22:58;;;;;;;5.28;3.28;;;14.20;87.00;;;;;;5018309;28;20260;-84
2023/06/05 06:25:28;;;;;;;4.82;3.22;;;14.30;86.90;;;;;;5017534;28;20084;-86
2023/06/05 06:27:55;;;;;;;4.72;3.25;;;14.40;87.00;;;;;;5015476;28;20084;-83
2023/06/05 06:30:21;;;;;;;11.65;3.75;;;14.50;86.80;;;;;;5013970;28;20049;-83
2023/06/05 06:32:48;;;;;;;5.45;3.45;;;14.80;86.80;;;;;;5006905;28;20037;-84
2023/06/05 06:35:14;;;;;;;4.83;2.87;;;15.30;86.10;;;;;;5005311;28;20033;-86
2023/06/05 06:37:41;;;;;;;3.97;2.75;;;15.90;84.30;;;;;;5000936;28;20030;-84
2023/06/05 06:40:10;;;;;;;4.05;2.90;;;16.90;80.40;;;;;;5001013;28;20068;-84
2023/06/05 06:42:37;;;;;;;4.28;3.22;;;18.30;77.30;;;;;;5015911;28;20025;-84
2023/06/05 06:45:04;;;;;;;5.38;2.67;;;19.10;74.10;;;;;;5017236;28;20506;-83
2023/06/05 06:47:30;;;;;;;5.95;2.95;;;19.40;71.60;;;;;;5016174;28;20037;-85
2023/06/05 06:49:56;;;;;;;7.30;3.05;;;19.30;69.00;;;;;;5017558;28;20357;-84
2023/06/05 06:52:23;;;;;;;5.40;3.40;;;18.70;69.50;;;;;;5016993;28;20125;-84
2023/06/05 06:54:51;;;;;;;6.95;3.42;;;18.40;71.00;;;;;;5016594;28;20032;-84
2023/06/05 06:57:17;;;;;;;8.02;3.63;;;18.50;71.90;;;;;;5016606;28;20029;-84
2023/06/05 06:59:44;;;;;;;4.63;3.20;;;19.40;71.40;;;;;;4995295;28;20132;-84
2023/06/05 07:02:20;;;;;;;;;;;22.00;65.60;;;;;;5017052;28;20475;-85
2023/06/05 07:04:46;;;;;;;5.20;3.10;;;24.60;64.40;;;;;;5014811;28;19905;-84
2023/06/05 07:07:15;;;;;;;6.43;2.90;;;26.20;52.90;;;;;;4998745;28;20057;-84
2023/06/05 07:09:42;;;;;;;6.18;3.70;;;27.20;51.50;;;;;;4997887;28;20038;-84
2023/06/05 07:12:09;;;;;;;;;;;27.20;48.80;;;;;;5017365;28;20025;-83
2023/06/05 07:14:34;;;;;;;5.80;3.15;;;27.20;52.00;;;;;;5017204;28;20417;-84
2023/06/05 07:17:03;;;;;;;6.43;2.80;;;28.20;48.20;;;;;;4998948;28;20030;-83
2023/06/05 07:19:33;;;;;;;5.03;2.47;;;29.50;45.90;;;;;;4997854;28;20018;-83
2023/06/05 07:22:05;;;;;;;4.72;2.58;;;29.90;42.80;;;;;;5015721;28;20026;-85
2023/06/05 07:24:35;;;;;;;2.83;2.15;;;30.50;43.00;;;;;;5017443;28;20018;-85
2023/06/05 07:27:02;;;;;;;4.45;2.58;;;30.50;41.00;;;;;;4998762;28;20080;-85
2023/06/05 07:29:28;;;;;;;5.63;2.88;;;32.20;42.60;;;;;;4999558;28;20029;-85
2023/06/05 07:31:56;;;;;;;7.90;2.78;;;32.60;39.90;;;;;;5019237;28;20026;-87
2023/06/05 07:34:23;;;;;;;13.73;2.88;;;33.20;39.20;;;;;;5000365;28;20116;-87
2023/06/05 07:36:51;;;;;;;5.28;2.47;;;34.10;38.60;;;;;;4997585;28;20025;-85
2023/06/05 07:39:19;;;;;;;4.25;2.40;;;34.80;36.70;;;;;;5016490;28;20021;-86
2023/06/05 07:41:55;;;;;;;5.60;2.83;;;34.40;36.50;;;;;;5016867;28;20594;-85
2023/06/05 07:44:21;;;;;;;6.20;2.17;;;33.90;36.90;;;;;;5014205;28;20480;-86
2023/06/05 07:46:49;;;;;;;6.45;2.30;;;33.10;36.80;;;;;;4981514;28;20524;-87
2023/06/05 07:49:17;;;;;;;4.63;2.38;;;31.90;36.90;;;;;;5027040;28;20131;-86
2023/06/05 07:51:47;;;;;;;6.68;2.70;;;30.60;38.20;;;;;;5008318;28;20023;-85
2023/06/05 07:54:16;;;;;;;5.25;2.03;;;30.30;39.80;;;;;;5004945;28;20032;-85
2023/06/05 07:56:43;;;;;;;4.93;2.40;;;29.60;39.40;;;;;;5008010;28;20045;-84
2023/06/05 07:59:10;;;;;;;5.10;3.03;;;28.10;41.90;;;;;;5030369;28;20022;-86
2023/06/05 08:01:36;;;;;;;;;;;;;;;;;;5035297;28;20021;-86
2023/06/05 08:04:07;;;;;;;6.97;3.58;;;26.50;42.60;;;;;;5015650;28;19905;-85
2023/06/05 08:06:37;;;;;;;4.18;2.58;;;26.20;43.30;;;;;;5014402;28;20033;-86
2023/06/05 08:09:07;;;;;;;5.88;3.22;;;24.80;45.00;;;;;;5004540;28;20056;-86
2023/06/05 08:11:33;;;;;;;6.32;2.40;;;23.30;47.90;;;;;;5003777;28;20037;-85
2023/06/05 08:13:58;;;;;;;3.80;2.47;;;22.20;50.30;;;;;;5005358;28;20029;-85
2023/06/05 08:16:25;;;;;;;5.45;3.47;;;21.30;51.70;;;;;;5021101;28;20373;-84
2023/06/05 08:18:51;;;;;;;11.88;4.10;;;20.60;54.00;;;;;;5003669;28;20080;-84
2023/06/05 08:21:17;;;;;;;7.03;2.65;;;19.90;54.70;;;;;;5003824;28;20475;-85
2023/06/05 08:23:53;;;;;;;;;;;;;;;;;;;;;
2023/06/05 08:26:23;;;;;;;7.03;2.87;;;19.00;57.10;;;;;;5029828;28;20057;-85
2023/06/05 08:28:49;;;;;;;5.65;2.92;;;18.70;58.90;;;;;;5017368;28;20299;-83
2023/06/05 08:31:15;;;;;;;14.43;4.75;;;18.60;59.50;;;;;;4997999;28;20056;-85
2023/06/05 08:33:42;;;;;;;5.57;2.33;;;18.50;59.90;;;;;;4997137;28;20125;-85
2023/06/05 08:36:08;;;;;;;4.53;2.60;;;18.50;60.60;;;;;;5015080;28;20033;-84
2023/06/05 08:38:35;;;;;;;7.70;3.20;;;18.70;60.30;;;;;;4996936;28;20026;-85
2023/06/05 08:41:07;;;;;;;7.57;3.90;;;18.90;60.00;;;;;;5014823;28;20021;-86
2023/06/05 08:43:36;;;;;;;6.43;3.10;;;19.10;59.00;;;;;;5014997;28;20037;-85
2023/06/05 08:46:04;;;;;;;5.13;2.65;;;19.00;59.50;;;;;;5014781;28;20018;-84
2023/06/05 08:48:43;;;;;;;12.70;5.70;;;18.90;59.00;;;;;;5014563;28;20037;-85
2023/06/05 08:51:14;;;;;;;3.03;2.25;;;18.80;59.60;;;;;;5013951;28;20018;-85
2023/06/05 08:53:44;;;;;;;6.38;2.88;;;18.90;59.70;;;;;;5014367;28;20033;-86
2023/06/05 08:56:11;;;;;;;4.78;2.45;;;19.30;59.40;;;;;;4995580;28;20515;-84
2023/06/05 08:58:37;;;;;;;5.90;2.20;;;21.50;56.20;;;;;;5014194;28;20058;-86
2023/06/05 09:01:04;;;;;;;3.17;2.00;;;24.40;50.40;;;;;;5007881;28;20057;-86
2023/06/05 09:03:32;;;;;;;5.43;2.30;;;27.00;45.70;;;;;;4996209;28;20059;-84
2023/06/05 09:05:58;;;;;;;9.00;4.43;;;29.30;42.80;;;;;;4997571;28;20124;-86
2023/06/05 09:08:32;;;;;;;3.03;1.73;;;30.80;40.30;;;;;;5013229;28;20081;-85
2023/06/05 09:11:20;;;;;;;3.58;1.77;;;31.90;37.80;;;;;;5013593;28;20026;-84
2023/06/05 09:13:47;;;;;;;8.27;1.95;;;32.60;37.40;;;;;;4987083;28;20056;-85
2023/06/05 09:16:13;;;;;;;6.38;1.98;;;32.70;36.10;;;;;;5015110;28;20026;-84
2023/06/05 09:19:11;;;;;;;3.23;1.80;;;32.10;34.90;;;;;;5016563;28;20387;-84
2023/06/05 09:21:37;;;;;;;6.85;2.15;;;30.60;36.40;;;;;;4963722;28;20029;-83
2023/06/05 09:24:09;;;;;;;4.88;2.13;;;28.90;37.60;;;;;;5013420;28;20026;-85
2023/06/05 09:26:58;;;;;;;5.90;1.83;;;27.40;39.30;;;;;;5013346;28;20132;-83
2023/06/05 09:29:29;;;;;;;5.30;2.50;;;26.20;41.80;;;;;;5011849;28;20025;-87
2023/06/05 09:32:00;;;;;;;5.40;2.10;;;26.50;42.00;;;;;;5012775;28;20053;-84
2023/06/05 09:34:30;;;;;;;2.63;1.73;;;26.30;41.50;;;;;;5012691;28;20392;-85
2023/06/05 09:36:58;;;;;;;3.13;2.05;;;25.90;41.20;;;;;;4994886;28;20454;-85
2023/06/05 09:39:26;;;;;;;3.63;2.22;;;25.30;42.50;;;;;;5012843;28;20018;-84
2023/06/05 09:41:55;;;;;;;2.75;1.98;;;24.90;43.50;;;;;;5013000;28;20026;-85
2023/06/05 09:44:21;;;;;;;3.15;1.70;;;25.20;42.90;;;;;;5013440;28;20041;-85
2023/06/05 09:46:53;;;;;;;3.30;2.10;;;24.70;42.60;;;;;;5016074;28;20028;-85
2023/06/05 09:49:19;;;;;;;8.35;2.92;;;23.80;44.80;;;;;;4993975;28;20050;-87
2023/06/05 09:51:46;;;;;;;4.27;2.10;;;23.00;46.50;;;;;;5013419;28;20025;-84
2023/06/05 09:54:13;;;;;;;3.97;2.10;;;21.90;48.20;;;;;;5013326;28;20264;-84
2023/06/05 09:56:51;;;;;;;4.47;2.67;;;20.80;50.30;;;;;;5022035;28;20087;-86
2023/06/05 09:59:21;;;;;;;12.60;5.03;;;19.70;52.90;;;;;;5018777;28;20026;-85
2023/06/05 10:01:50;;;;;;;6.55;2.88;;;18.90;56.40;;;;;;5015456;28;20420;-84
2023/06/05 10:04:20;;;;;;;9.35;2.75;;;18.50;58.90;;;;;;4995867;28;20462;-82
2023/06/05 10:06:47;;;;;;;3.55;2.50;;;18.00;62.50;;;;;;4999412;28;20032;-81
2023/06/05 10:09:14;;;;;;;5.28;2.78;;;17.40;64.00;;;;;;5015957;28;20042;-81
2023/06/05 10:11:41;;;;;;;9.68;3.13;;;17.00;68.70;;;;;;5021680;28;20032;-84
2023/06/05 10:14:09;;;;;;;3.33;2.63;;;16.60;71.40;;;;;;5003649;28;20389;-81
2023/06/05 10:16:36;;;;;;;6.05;2.38;;;16.90;70.80;;;;;;5024680;28;20383;-82
2023/06/05 10:19:03;;;;;;;7.43;2.92;;;17.40;67.90;;;;;;5002298;28;20033;-83
2023/06/05 10:21:30;;;;;;;6.30;2.70;;;18.40;69.60;;;;;;5000939;28;20038;-84
2023/06/05 10:24:06;;;;;;;5.82;3.10;;;20.40;66.10;;;;;;5003071;28;20022;-84
2023/06/05 10:27:15;;;;;;;6.45;2.30;;;23.00;58.30;;;;;;5016442;28;20018;-83
2023/06/05 10:30:12;;;;;;;4.30;1.95;;;24.50;50.00;;;;;;4987012;28;20526;-84
2023/06/05 10:33:09;;;;;;;4.95;2.33;;;23.50;49.00;;;;;;5016491;28;20026;-84
2023/06/05 10:36:00;;;;;;;4.07;2.50;;;22.10;50.80;;;;;;5016125;28;20033;-82
2023/06/05 10:38:27;;;;;;;3.10;2.20;;;21.10;53.50;;;;;;4998999;28;20479;-82
2023/06/05 10:40:55;;;;;;;2.55;2.05;;;20.20;54.50;;;;;;5016364;28;20030;-83
2023/06/05 10:43:29;;;;;;;4.28;2.22;;;19.50;55.80;;;;;;5018835;28;20084;-83
2023/06/05 10:45:57;;;;;;;5.80;2.97;;;19.00;58.00;;;;;;5004895;28;20121;-83
2023/06/05 10:49:01;;;;;;;6.43;2.67;;;18.70;59.80;;;;;;5019400;28;20349;-84
2023/06/05 10:51:39;;;;;;;4.82;2.03;;;18.60;59.50;;;;;;5013717;28;20018;-83
2023/06/05 10:54:06;;;;;;;4.30;2.03;;;18.50;60.00;;;;;;5027913;28;20220;-84
2023/06/05 10:56:51;;;;;;;4.97;2.45;;;18.50;60.10;;;;;;5018175;28;20018;-83
2023/06/05 10:59:20;;;;;;;4.40;2.70;;;18.60;60.10;;;;;;4998289;28;20386;-83
2023/06/05 11:04:46;;;;;;;3.05;1.65;;;18.70;59.60;;;;;;5014447;28;20030;-83
2023/06/05 11:07:23;;;;;;;3.67;2.47;;;18.60;59.50;;;;;;5015465;28;20344;-84
2023/06/05 11:10:20;;;;;;;7.40;2.30;;;18.50;60.70;;;;;;5015888;28;20052;-84
2023/06/05 11:12:46;;;;;;;7.45;2.92;;;18.30;61.60;;;;;;4998668;28;20034;-82
2023/06/05 11:15:13;;;;;;;6.50;2.42;;;18.10;61.80;;;;;;4998771;28;20030;-83
2023/06/05 11:17:44;;;;;;;7.07;2.80;;;17.90;62.30;;;;;;5016139;28;20029;-84
2023/06/05 11:20:28;;;;;;;7.35;2.63;;;17.70;65.80;;;;;;5014530;28;20057;-82
2023/06/05 11:22:56;;;;;;;6.03;2.45;;;17.20;69.00;;;;;;5004150;28;20440;-81
2023/06/05 11:25:29;;;;;;;7.40;3.10;;;16.60;70.50;;;;;;4998906;28;20025;-82
2023/06/05 11:28:01;;;;;;;5.75;3.13;;;16.20;72.40;;;;;;5021812;28;20038;-83
2023/06/05 11:30:34;;;;;;;4.65;2.78;;;15.70;76.50;;;;;;5016008;28;20018;-83
2023/06/05 11:33:16;;;;;;;4.85;2.08;;;;;;;;;;5015366;28;20564;-83
2023/06/05 11:35:44;;;;;;;4.30;2.00;;;;;;;;;;4997788;28;20033;-84
2023/06/05 11:38:25;;;;;;;4.88;1.80;;;15.10;81.00;;;;;;5014117;28;20030;-83
2023/06/05 11:40:51;;;;;;;6.38;3.03;;;13.70;89.20;;;;;;5014125;28;20018;-83
2023/06/05 11:43:17;;;;;;;6.05;3.75;;;13.80;90.80;;;;;;5006252;28;20026;-83
2023/06/05 11:45:57;;;;;;;6.93;3.20;;;14.30;91.00;;;;;;4988771;28;20500;-81
2023/06/05 11:48:24;;;;;;;11.43;5.97;;;14.60;90.90;;;;;;5007208;28;20472;-80
2023/06/05 11:50:57;;;;;;;;;;;14.90;91.00;;;;;;5012092;28;20141;-82
2023/06/05 11:53:24;;;;;;;7.43;3.90;;;15.20;90.30;;;;;;5002778;28;19937;-83
2023/06/05 11:58:27;;;;;;;12.85;4.95;;;15.30;88.10;;;;;;5015083;28;20022;-83
2023/06/05 12:01:06;;;;;;;9.77;5.50;;;15.30;89.50;;;;;;4997429;28;20034;-84
2023/06/05 12:03:32;;;;;;;2.60;1.85;;;15.50;90.30;;;;;;5003564;28;20037;-84
2023/06/05 12:06:00;;;;;;;4.78;2.42;;;15.80;87.40;;;;;;5023012;28;20056;-83
2023/06/05 12:08:30;;;;;;;6.85;3.83;;;16.10;85.10;;;;;;5026770;28;20043;-82
2023/06/05 12:10:56;;;;;;;8.10;3.42;;;16.40;84.70;;;;;;5010031;28;20025;-85
2023/06/05 12:13:22;;;;;;;5.70;3.08;;;16.40;84.10;;;;;;5019330;28;20017;-84
2023/06/05 12:16:00;;;;;;;4.57;2.30;;;16.30;81.90;;;;;;4998854;28;20026;-83
2023/06/05 12:18:35;;;;;;;6.35;3.15;;;16.10;80.50;;;;;;4997729;28;20026;-83
2023/06/05 12:21:02;;;;;;;4.75;2.90;;;16.00;82.30;;;;;;4994195;28;20030;-82
2023/06/05 12:23:32;;;;;;;11.40;3.35;;;15.90;82.80;;;;;;4995764;28;20018;-81
2023/06/05 12:26:03;;;;;;;5.35;3.47;;;15.70;83.00;;;;;;5002190;28;20026;-83
2023/06/05 12:28:30;;;;;;;5.78;3.20;;;15.60;85.20;;;;;;5007146;28;20041;-83
2023/06/05 12:30:56;;;;;;;;;;;15.40;86.00;;;;;;4996928;28;20014;-82
2023/06/05 12:33:25;;;;;;;4.82;2.80;;;15.30;85.50;;;;;;5017938;28;19960;-83
2023/06/05 12:36:07;;;;;;;5.13;3.35;;;15.20;88.90;;;;;;5014145;28;20076;-85
2023/06/05 12:38:41;;;;;;;5.05;2.50;;;15.60;89.10;;;;;;4997402;28;20147;-83
2023/06/05 12:41:10;;;;;;;7.53;2.67;;;16.00;88.70;;;;;;5014348;28;20026;-83
2023/06/05 12:43:39;;;;;;;4.50;2.83;;;16.50;87.50;;;;;;5015721;28;20087;-83
2023/06/05 12:46:08;;;;;;;9.88;4.00;;;16.90;85.20;;;;;;4983293;28;20037;-83
2023/06/05 12:48:37;;;;;;;5.43;3.65;;;17.30;82.30;;;;;;5014542;28;20552;-84
2023/06/05 12:51:03;;;;;;;2.92;1.85;;;17.60;78.60;;;;;;5014682;28;20018;-84
2023/06/05 12:53:32;;;;;;;4.15;1.92;;;17.60;76.70;;;;;;5014341;28;20029;-87
2023/06/05 12:55:58;;;;;;;5.20;2.15;;;17.60;76.80;;;;;;5014468;28;20029;-85
2023/06/05 12:58:24;;;;;;;5.68;2.08;;;17.50;76.80;;;;;;5014439;28;20033;-84
2023/06/05 13:00:52;;;;;;;3.47;1.98;;;17.40;75.70;;;;;;5016365;28;20026;-85
2023/06/05 13:03:18;;;;;;;4.13;2.13;;;17.30;73.70;;;;;;4995946;28;20053;-83
2023/06/05 13:05:50;;;;;;;3.75;2.40;;;17.30;73.60;;;;;;5013654;28;20033;-86